Terminal Aerodrome Forecast
Issued by NWS Omaha/Valley, NE

Home | Current Version | Previous Version | Text Only | Print | Product List | Glossary Off
Versions: 1 2 3 4 5 6 7 8 9 10 11 12 13 14 15 16

000
FTUS43 KOAX 201410 AAA
TAFOFK
TAF AMD
KOFK 201410Z 2014/2112 36007KT P6SM SCT100
     FM202000 05006KT P6SM SCT150
     FM210600 07006KT P6SM BKN050
     FM211000 09005KT 3SM BR BKN020=

USA.gov is the U.S. government's official web portal to all federal, state and local government web resources and services.